createdAt,value
2023-04-11T00:01:23.090Z,96044.44
2023-04-11T00:04:10.539Z,96048.91
2023-04-11T00:06:57.941Z,96039.66
2023-04-11T00:09:45.285Z,96037.31
2023-04-11T00:12:32.641Z,96028.06
2023-04-11T00:15:19.976Z,96023.09
2023-04-11T00:18:07.309Z,96007.81
2023-04-11T00:20:54.622Z,96003.88
2023-04-11T00:23:41.941Z,96001.47
2023-04-11T00:26:29.227Z,95980.97
2023-04-11T00:29:16.595Z,95963.88
2023-04-11T00:32:04.075Z,95956.25
2023-04-11T00:34:52.010Z,95941.81
2023-04-11T00:37:39.358Z,95934.69
2023-04-11T00:40:26.690Z,95929.69
2023-04-11T00:43:14.006Z,95929.13
2023-04-11T00:46:01.374Z,95935.66
2023-04-11T00:48:48.766Z,95956.13
2023-04-11T00:51:36.078Z,95976.56
2023-04-11T00:54:23.394Z,95978.38
2023-04-11T00:57:10.703Z,95991.75
2023-04-11T00:59:57.995Z,95997.00
2023-04-11T01:02:45.555Z,96019.78
2023-04-11T01:05:32.984Z,96017.97
2023-04-11T01:08:20.326Z,96005.09
2023-04-11T01:11:07.646Z,95988.53
2023-04-11T01:13:54.962Z,95981.72
2023-04-11T01:16:42.333Z,95978.31
2023-04-11T01:19:29.694Z,95960.97
2023-04-11T01:22:16.965Z,95957.81
2023-04-11T01:25:04.325Z,95948.38
2023-04-11T01:27:51.921Z,95962.50
2023-04-11T01:30:39.331Z,95951.22
2023-04-11T01:33:26.644Z,95947.28
2023-04-11T01:36:14.000Z,95931.53
2023-04-11T01:39:01.335Z,95928.38
2023-04-11T01:41:48.667Z,95933.06
2023-04-11T01:44:36.014Z,95920.97
2023-04-11T01:47:23.413Z,95912.31
2023-04-11T01:50:10.741Z,95908.09
2023-04-11T01:52:58.080Z,95888.41
2023-04-11T01:55:45.411Z,95885.78
2023-04-11T01:58:32.749Z,95892.34
2023-04-11T02:01:20.141Z,95888.91
2023-04-11T02:04:07.649Z,95902.00
2023-04-11T02:06:55.041Z,95902.28
2023-04-11T02:09:42.364Z,95890.97
2023-04-11T02:12:29.695Z,95882.56
2023-04-11T02:15:17.029Z,95872.06
2023-04-11T02:18:04.359Z,95872.34
2023-04-11T02:20:51.754Z,95872.34
2023-04-11T02:23:39.098Z,95877.81
2023-04-11T02:26:26.423Z,95860.50
2023-04-11T02:29:13.697Z,95858.06
2023-04-11T02:32:01.143Z,95861.75
2023-04-11T02:34:48.572Z,95866.22
2023-04-11T02:37:35.911Z,95858.59
2023-04-11T02:40:23.246Z,95885.59
2023-04-11T02:43:10.586Z,95885.59
2023-04-11T02:46:09.503Z,95888.22
2023-04-11T02:48:59.353Z,95880.59
2023-04-11T02:51:46.692Z,95876.38
2023-04-11T02:54:34.022Z,95881.63
2023-04-11T02:57:21.339Z,95879.25
2023-04-11T03:00:08.668Z,95881.88
2023-04-11T03:02:56.069Z,95869.00
2023-04-11T03:05:43.452Z,95863.75
2023-04-11T03:08:30.799Z,95845.69
2023-04-11T03:11:18.224Z,95839.63
2023-04-11T03:14:05.547Z,95845.91
2023-04-11T03:16:52.864Z,95853.00
2023-04-11T03:19:40.172Z,95854.03
2023-04-11T03:22:27.525Z,95843.00
2023-04-11T03:25:14.863Z,95842.19
2023-04-11T03:28:02.230Z,95840.84
2023-04-11T03:30:49.549Z,95828.78
2023-04-11T03:33:36.934Z,95821.16
2023-04-11T03:36:24.239Z,95822.47
2023-04-11T03:39:11.799Z,95806.72
2023-04-11T03:41:59.096Z,95808.03
2023-04-11T03:44:46.393Z,95811.91
2023-04-11T03:47:33.732Z,95802.47
2023-04-11T03:50:21.077Z,95808.72
2023-04-11T03:53:08.415Z,95806.38
2023-04-11T03:55:55.721Z,95797.72
2023-04-11T03:58:43.050Z,95790.09
2023-04-11T04:01:30.350Z,95784.06
2023-04-11T04:04:17.772Z,95785.91
2023-04-11T04:07:05.152Z,95786.13
2023-04-11T04:09:52.479Z,95787.19
2023-04-11T04:12:39.820Z,95784.81
2023-04-11T04:15:27.154Z,95779.81
2023-04-11T04:18:14.482Z,95776.16
2023-04-11T04:21:01.811Z,95779.81
2023-04-11T04:23:49.160Z,95772.19
2023-04-11T04:26:36.521Z,95783.72
2023-04-11T04:29:23.842Z,95775.84
2023-04-11T04:32:11.817Z,95764.03
2023-04-11T04:34:59.180Z,95756.44
2023-04-11T04:37:46.564Z,95759.03
2023-04-11T04:40:33.905Z,95746.97
2023-04-11T04:43:21.212Z,95741.72
2023-04-11T04:46:08.554Z,95739.34
2023-04-11T04:48:55.954Z,95743.03
2023-04-11T04:51:43.306Z,95728.31
2023-04-11T04:54:30.640Z,95748.50
2023-04-11T04:57:17.974Z,95745.09
2023-04-11T05:00:05.343Z,95739.63
2023-04-11T05:02:52.804Z,95750.09
2023-04-11T05:05:40.235Z,95733.84
2023-04-11T05:08:27.568Z,95738.25
2023-04-11T05:11:14.945Z,95753.19
2023-04-11T05:14:02.282Z,95740.09
2023-04-11T05:16:49.666Z,95763.66
2023-04-11T05:19:37.028Z,95773.38
2023-04-11T05:22:24.368Z,95795.09
2023-04-11T05:25:11.663Z,95792.25
2023-04-11T05:27:59.023Z,95800.88
2023-04-11T05:30:46.374Z,95802.72
2023-04-11T05:33:33.747Z,95787.00
2023-04-11T05:36:21.070Z,95777.31
2023-04-11T05:39:08.426Z,95782.31
2023-04-11T05:41:55.717Z,95772.06
2023-04-11T05:44:43.221Z,95771.06
2023-04-11T05:47:30.561Z,95764.75
2023-04-11T05:50:17.897Z,95765.53
2023-04-11T05:53:05.204Z,95770.53
2023-04-11T05:55:52.522Z,95776.59
2023-04-11T05:58:39.849Z,95763.22
2023-04-11T06:01:27.178Z,95766.66
2023-04-11T06:04:14.659Z,95773.47
2023-04-11T06:07:02.054Z,95777.41
2023-04-11T06:09:49.375Z,95766.47
2023-04-11T06:12:36.704Z,95755.47
2023-04-11T06:15:24.010Z,95764.69
2023-04-11T06:18:11.384Z,95763.41
2023-04-11T06:20:58.710Z,95779.44
2023-04-11T06:23:46.057Z,95782.59
2023-04-11T06:26:33.392Z,95778.69
2023-04-11T06:29:20.739Z,95785.81
2023-04-11T06:32:08.050Z,95784.53
2023-04-11T06:34:55.377Z,95786.41
2023-04-11T06:37:42.699Z,95794.81
2023-04-11T06:40:30.154Z,95806.41
2023-04-11T06:43:17.536Z,95806.94
2023-04-11T06:46:04.908Z,95792.31
2023-04-11T06:48:52.261Z,95800.25
2023-04-11T06:51:39.578Z,95803.97
2023-04-11T06:54:26.909Z,95806.88
2023-04-11T06:57:14.222Z,95808.75
2023-04-11T07:00:01.513Z,95811.69
2023-04-11T07:02:49.116Z,95809.34
2023-04-11T07:05:39.088Z,95812.00
2023-04-11T07:08:26.893Z,95814.94
2023-04-11T07:11:14.172Z,95813.16
2023-04-11T07:14:01.502Z,95829.97
2023-04-11T07:16:48.774Z,95837.09
2023-04-11T07:19:36.106Z,95850.72
2023-04-11T07:22:23.397Z,95848.25
2023-04-11T07:25:10.686Z,95862.81
2023-04-11T07:27:58.001Z,95861.09
2023-04-11T07:30:45.432Z,95873.53
2023-04-11T07:33:32.922Z,95879.75
2023-04-11T07:36:20.258Z,95880.78
2023-04-11T07:39:07.600Z,95874.91
2023-04-11T07:41:54.928Z,95892.97
2023-04-11T07:44:42.248Z,95904.19
2023-04-11T07:47:29.639Z,95916.72
2023-04-11T07:50:16.991Z,95924.31
2023-04-11T07:53:04.368Z,95912.47
2023-04-11T07:55:51.642Z,95916.13
2023-04-11T07:58:39.017Z,95925.81
2023-04-11T08:01:26.319Z,95925.81
2023-04-11T08:04:13.818Z,95930.25
2023-04-11T08:07:01.485Z,95933.44
2023-04-11T08:09:48.790Z,95942.56
2023-04-11T08:12:36.117Z,95928.59
2023-04-11T08:15:23.457Z,95953.69
2023-04-11T08:18:12.268Z,95953.94
2023-04-11T08:20:59.839Z,95966.25
2023-04-11T08:23:47.791Z,95948.47
2023-04-11T08:26:35.114Z,95956.31
2023-04-11T08:29:22.395Z,95954.25
2023-04-11T08:32:09.712Z,95938.06
2023-04-11T08:34:56.997Z,95926.75
2023-04-11T08:37:44.320Z,95921.25
2023-04-11T08:40:31.658Z,95906.63
2023-04-11T08:43:19.056Z,95882.63
2023-04-11T08:46:06.415Z,95908.16
2023-04-11T08:48:53.753Z,95932.13
2023-04-11T08:51:41.050Z,95944.97
2023-04-11T08:54:28.757Z,95947.38
2023-04-11T08:57:16.106Z,95954.19
2023-04-11T09:00:03.405Z,95956.56
2023-04-11T09:02:50.777Z,95951.88
2023-04-11T09:05:38.231Z,95957.44
2023-04-11T09:08:25.548Z,95950.69
2023-04-11T09:11:12.909Z,95942.09
2023-04-11T09:14:00.213Z,95952.88
2023-04-11T09:16:47.565Z,95956.84
2023-04-11T09:19:34.933Z,95950.06
2023-04-11T09:22:22.397Z,95951.66
2023-04-11T09:25:09.686Z,95956.16
2023-04-11T09:27:57.022Z,95949.16
2023-04-11T09:30:44.328Z,95960.00
2023-04-11T09:33:31.675Z,95953.06
2023-04-11T09:36:19.046Z,95961.03
2023-04-11T09:39:06.376Z,95965.34
2023-04-11T09:41:53.704Z,95964.09
2023-04-11T09:44:41.039Z,95955.50
2023-04-11T09:47:28.396Z,95949.03
2023-04-11T09:50:15.768Z,95942.75
2023-04-11T09:53:03.089Z,95943.84
2023-04-11T09:55:50.393Z,95944.16
2023-04-11T09:58:37.771Z,95938.66
2023-04-11T10:01:25.169Z,95937.09
2023-04-11T10:04:12.554Z,95938.44
2023-04-11T10:06:59.902Z,95940.03
2023-04-11T10:09:47.240Z,95939.50
2023-04-11T10:12:34.521Z,95935.00
2023-04-11T10:15:21.905Z,95947.38
2023-04-11T10:18:09.292Z,95960.81
2023-04-11T10:20:56.679Z,95941.13
2023-04-11T10:23:43.987Z,95930.63
2023-04-11T10:26:31.315Z,95937.19
2023-04-11T10:29:18.619Z,95945.69
2023-04-11T10:32:05.994Z,95938.88
2023-04-11T10:34:53.347Z,95922.91
2023-04-11T10:37:40.694Z,95938.50
2023-04-11T10:40:28.034Z,95946.72
2023-04-11T10:43:15.377Z,95928.66
2023-04-11T10:46:02.707Z,95945.03
2023-04-11T10:48:50.084Z,95955.59
2023-04-11T10:51:37.426Z,95952.72
2023-04-11T10:54:24.791Z,95949.09
2023-04-11T10:57:12.100Z,95943.59
2023-04-11T10:59:59.416Z,95952.88
2023-04-11T11:02:46.950Z,95956.84
2023-04-11T11:05:34.385Z,95956.06
2023-04-11T11:08:21.765Z,95951.84
2023-04-11T11:11:09.089Z,95943.19
2023-04-11T11:13:56.730Z,95953.47
2023-04-11T11:16:45.115Z,95951.09
2023-04-11T11:19:32.568Z,95938.47
2023-04-11T11:22:19.869Z,95940.53
2023-04-11T11:25:07.222Z,95919.44
2023-04-11T11:27:54.535Z,95943.69
2023-04-11T11:30:41.878Z,95946.09
2023-04-11T11:33:29.275Z,95945.03
2023-04-11T11:36:16.870Z,95928.13
2023-04-11T11:39:04.180Z,95937.34
2023-04-11T11:41:51.536Z,95940.75
2023-04-11T11:44:38.929Z,95905.63
2023-04-11T11:47:26.286Z,95928.34
2023-04-11T11:50:13.597Z,95919.34
2023-04-11T11:53:00.952Z,95940.19
2023-04-11T11:55:48.267Z,95938.88
2023-04-11T11:58:35.642Z,95924.88
2023-04-11T12:01:22.953Z,95942.28
2023-04-11T12:04:10.370Z,95940.97
2023-04-11T12:06:57.870Z,95934.88
2023-04-11T12:09:45.246Z,95938.56
2023-04-11T12:12:32.597Z,95921.91
2023-04-11T12:15:19.979Z,95928.78
2023-04-11T12:18:07.398Z,95952.22
2023-04-11T12:20:54.767Z,95937.75
2023-04-11T12:23:42.081Z,95935.91
2023-04-11T12:26:29.407Z,95932.50
2023-04-11T12:29:16.719Z,95952.03
2023-04-11T12:32:04.138Z,95932.81
2023-04-11T12:34:51.453Z,95955.25
2023-04-11T12:37:38.774Z,95958.44
2023-04-11T12:40:26.104Z,95960.56
2023-04-11T12:43:13.446Z,95943.44
2023-04-11T12:46:00.781Z,95948.19
2023-04-11T12:48:48.094Z,95936.31
2023-04-11T12:51:35.464Z,95932.63
2023-04-11T12:54:22.815Z,95926.56
2023-04-11T12:57:10.160Z,95932.63
2023-04-11T12:59:57.480Z,95924.47
2023-04-11T13:02:45.482Z,95938.97
2023-04-11T13:05:33.079Z,95932.38
2023-04-11T13:08:20.454Z,95916.03
2023-04-11T13:11:07.752Z,95933.97
2023-04-11T13:13:55.069Z,95960.03
2023-04-11T13:16:42.560Z,95942.41
2023-04-11T13:19:30.091Z,95948.44
2023-04-11T13:22:17.368Z,95934.75
2023-04-11T13:25:04.736Z,95950.03
2023-04-11T13:27:52.083Z,95951.09
2023-04-11T13:30:39.430Z,95932.13
2023-04-11T13:33:26.774Z,95931.59
2023-04-11T13:36:14.119Z,95942.66
2023-04-11T13:39:01.430Z,95945.56
2023-04-11T13:41:48.789Z,95965.06
2023-04-11T13:44:36.106Z,95965.31
2023-04-11T13:47:23.561Z,95967.69
2023-04-11T13:50:10.976Z,95992.47
2023-04-11T13:52:58.463Z,95994.59
2023-04-11T13:55:45.787Z,96009.84
2023-04-11T13:58:33.112Z,95993.25
2023-04-11T14:01:20.455Z,96016.91
2023-04-11T14:04:07.939Z,96013.19
2023-04-11T14:06:55.407Z,96021.59
2023-04-11T14:09:42.746Z,96026.00
2023-04-11T14:12:30.133Z,96024.06
2023-04-11T14:15:18.296Z,96018.47
2023-04-11T14:18:06.789Z,96014.72
2023-04-11T14:20:54.145Z,96016.28
2023-04-11T14:23:41.457Z,96009.69
2023-04-11T14:26:28.776Z,96009.69
2023-04-11T14:29:16.286Z,96008.63
2023-04-11T14:32:03.746Z,96001.53
2023-04-11T14:34:51.139Z,96007.09
2023-04-11T14:37:38.482Z,95999.72
2023-04-11T14:40:25.826Z,95999.72
2023-04-11T14:43:13.188Z,96000.25
2023-04-11T14:46:00.497Z,96003.72
2023-04-11T14:48:47.843Z,95996.59
2023-04-11T14:51:35.178Z,95990.81
2023-04-11T14:54:22.611Z,95993.47
2023-04-11T14:57:09.948Z,95981.88
2023-04-11T14:59:57.298Z,95985.63
2023-04-11T15:02:44.694Z,95990.63
2023-04-11T15:05:32.075Z,95991.97
2023-04-11T15:08:19.417Z,95993.28
2023-04-11T15:11:06.807Z,95993.03
2023-04-11T15:13:54.365Z,95987.75
2023-04-11T15:16:41.864Z,95980.16
2023-04-11T15:19:29.156Z,95975.69
2023-04-11T15:22:16.512Z,95982.53
2023-04-11T15:25:03.824Z,95972.53
2023-04-11T15:27:51.155Z,95971.75
2023-04-11T15:30:38.489Z,95966.22
2023-04-11T15:33:25.852Z,95958.31
2023-04-11T15:36:13.178Z,95962.00
2023-04-11T15:39:00.566Z,95964.91
2023-04-11T15:41:47.840Z,95965.94
2023-04-11T15:44:35.111Z,95973.56
2023-04-11T15:47:22.412Z,95982.00
2023-04-11T15:50:09.753Z,95997.75
2023-04-11T15:52:57.837Z,95988.78
2023-04-11T15:55:45.297Z,95995.63
2023-04-11T15:58:33.830Z,95985.88
2023-04-11T16:01:21.486Z,95991.63
2023-04-11T16:04:08.929Z,95991.63
2023-04-11T16:06:56.297Z,95984.47
2023-04-11T16:09:43.617Z,95982.66
2023-04-11T16:12:30.989Z,95962.66
2023-04-11T16:15:18.324Z,95980.28
2023-04-11T16:18:05.798Z,95983.16
2023-04-11T16:20:53.152Z,95996.56
2023-04-11T16:23:40.465Z,95995.00
2023-04-11T16:26:27.789Z,95998.16
2023-04-11T16:29:15.108Z,95995.00
2023-04-11T16:32:02.584Z,95996.34
2023-04-11T16:34:50.035Z,96008.72
2023-04-11T16:37:37.374Z,96000.59
2023-04-11T16:40:24.782Z,96008.75
2023-04-11T16:43:12.116Z,96011.66
2023-04-11T16:45:59.458Z,95989.84
2023-04-11T16:48:46.792Z,96006.19
2023-04-11T16:51:34.176Z,96004.88
2023-04-11T16:54:21.479Z,96005.16
2023-04-11T16:57:08.866Z,96007.00
2023-04-11T16:59:56.189Z,96010.44
2023-04-11T17:02:43.660Z,96004.19
2023-04-11T17:05:31.065Z,96009.47
2023-04-11T17:08:18.454Z,96004.78
2023-04-11T17:11:05.842Z,96000.09
2023-04-11T17:13:53.203Z,96002.72
2023-04-11T17:16:40.541Z,96009.06
2023-04-11T17:19:27.913Z,96015.91
2023-04-11T17:22:15.229Z,96007.75
2023-04-11T17:25:02.566Z,96016.47
2023-04-11T17:27:49.910Z,96004.84
2023-04-11T17:30:37.297Z,96009.09
2023-04-11T17:33:24.689Z,96014.88
2023-04-11T17:36:12.222Z,96023.06
2023-04-11T17:38:59.601Z,96020.41
2023-04-11T17:41:46.906Z,96028.84
2023-04-11T17:44:34.278Z,96033.06
2023-04-11T17:47:21.613Z,96035.44
2023-04-11T17:50:08.947Z,96031.47
2023-04-11T17:52:56.263Z,96039.66
2023-04-11T17:55:43.561Z,96035.97
2023-04-11T17:58:30.899Z,96044.13
2023-04-11T18:01:18.251Z,96045.44
2023-04-11T18:04:05.683Z,96050.19
2023-04-11T18:06:53.031Z,96043.59
2023-04-11T18:09:40.365Z,96044.09
2023-04-11T18:12:29.533Z,96050.16
2023-04-11T18:15:17.193Z,96048.31
2023-04-11T18:18:04.580Z,96059.09
2023-04-11T18:20:51.941Z,96054.06
2023-04-11T18:23:39.307Z,96059.56
2023-04-11T18:26:26.668Z,96056.94
2023-04-11T18:29:13.992Z,96056.13
2023-04-11T18:32:01.300Z,96059.00
2023-04-11T18:34:48.746Z,96068.97
2023-04-11T18:37:36.085Z,96069.47
2023-04-11T18:40:23.447Z,96064.41
2023-04-11T18:43:10.757Z,96063.84
2023-04-11T18:45:58.286Z,96063.00
2023-04-11T18:48:45.650Z,96069.28
2023-04-11T18:51:32.969Z,96073.97
2023-04-11T18:54:20.246Z,96066.31
2023-04-11T18:57:09.122Z,96077.84
2023-04-11T18:59:57.681Z,96079.13
2023-04-11T19:02:48.485Z,96086.44
2023-04-11T19:05:36.276Z,96094.78
2023-04-11T19:08:23.805Z,96085.53
2023-04-11T19:11:11.193Z,96087.56
2023-04-11T19:13:58.712Z,96086.19
2023-04-11T19:16:46.458Z,96083.47
2023-04-11T19:19:33.884Z,96083.94
2023-04-11T19:22:21.208Z,96080.94
2023-04-11T19:25:08.564Z,96083.22
2023-04-11T19:27:55.910Z,96086.28
2023-04-11T19:30:43.249Z,96084.34
2023-04-11T19:33:30.583Z,96085.56
2023-04-11T19:36:17.931Z,96083.38
2023-04-11T19:39:05.274Z,96089.06
2023-04-11T19:41:52.610Z,96089.25
2023-04-11T19:44:40.000Z,96081.00
2023-04-11T19:47:27.396Z,96075.41
2023-04-11T19:50:14.738Z,96069.75
2023-04-11T19:53:02.066Z,96072.25
2023-04-11T19:55:49.397Z,96070.06
2023-04-11T19:58:36.696Z,96068.09
2023-04-11T20:01:24.053Z,96068.50
2023-04-11T20:04:11.555Z,96066.50
2023-04-11T20:06:58.987Z,96059.28
2023-04-11T20:09:46.281Z,96048.19
2023-04-11T20:12:33.635Z,96045.41
2023-04-11T20:15:20.963Z,96046.34
2023-04-11T20:18:08.333Z,96045.50
2023-04-11T20:20:55.678Z,96042.22
2023-04-11T20:23:43.363Z,96041.56
2023-04-11T20:26:30.698Z,96039.91
2023-04-11T20:29:18.136Z,96039.28
2023-04-11T20:32:05.539Z,96033.41
2023-04-11T20:34:52.913Z,96040.38
2023-04-11T20:37:40.280Z,96044.72
2023-04-11T20:40:27.639Z,96042.03
2023-04-11T20:43:14.940Z,96045.38
2023-04-11T20:46:02.281Z,96045.25
2023-04-11T20:48:49.588Z,96036.50
2023-04-11T20:51:36.932Z,96038.25
2023-04-11T20:54:24.258Z,96029.50
2023-04-11T20:57:11.599Z,96014.72
2023-04-11T20:59:58.967Z,96015.66
2023-04-11T21:02:46.421Z,96026.84
2023-04-11T21:05:33.876Z,96016.03
2023-04-11T21:08:21.224Z,96024.00
2023-04-11T21:11:08.542Z,96018.88
2023-04-11T21:13:56.087Z,96017.78
2023-04-11T21:16:43.524Z,96022.91
2023-04-11T21:19:30.902Z,96030.41
2023-04-11T21:22:18.211Z,96026.91
2023-04-11T21:25:05.568Z,96030.78
2023-04-11T21:27:52.863Z,96036.72
2023-04-11T21:30:40.228Z,96031.94
2023-04-11T21:33:27.575Z,96023.97
2023-04-11T21:36:14.967Z,96021.84
2023-04-11T21:39:02.402Z,96012.06
2023-04-11T21:41:49.780Z,96009.13
2023-04-11T21:44:37.130Z,96005.38
2023-04-11T21:47:24.494Z,96002.66
2023-04-11T21:50:11.837Z,96001.50
2023-04-11T21:52:59.219Z,95993.56
2023-04-11T21:55:46.527Z,95997.66
2023-04-11T21:58:33.854Z,96002.78
2023-04-11T22:01:21.168Z,96000.81
2023-04-11T22:04:08.707Z,96005.72
2023-04-11T22:06:56.148Z,95989.16
2023-04-11T22:09:43.511Z,95996.84
2023-04-11T22:12:30.840Z,95996.75
2023-04-11T22:15:18.251Z,95982.56
2023-04-11T22:18:05.765Z,95978.00
2023-04-11T22:20:53.143Z,95979.47
2023-04-11T22:23:40.486Z,95981.16
2023-04-11T22:26:27.823Z,95974.81
2023-04-11T22:29:15.146Z,95971.06
2023-04-11T22:32:02.539Z,95975.38
2023-04-11T22:34:50.002Z,95981.28
2023-04-11T22:37:37.429Z,95975.94
2023-04-11T22:40:24.725Z,95974.78
2023-04-11T22:43:12.057Z,95968.38
2023-04-11T22:45:59.450Z,95972.47
2023-04-11T22:48:46.823Z,95960.88
2023-04-11T22:51:34.097Z,95953.75
2023-04-11T22:54:21.429Z,95945.78
2023-04-11T22:57:08.779Z,95953.50
2023-04-11T22:59:56.150Z,95941.91
2023-04-11T23:02:43.460Z,95946.00
2023-04-11T23:05:31.105Z,95935.41
2023-04-11T23:08:18.420Z,95940.28
2023-04-11T23:11:05.727Z,95922.13
2023-04-11T23:13:53.064Z,95925.41
2023-04-11T23:16:40.571Z,95918.22
2023-04-11T23:19:27.877Z,95921.50
2023-04-11T23:22:15.193Z,95913.34
2023-04-11T23:25:02.557Z,95909.56
2023-04-11T23:27:49.927Z,95906.84
2023-04-11T23:30:37.315Z,95908.28
2023-04-11T23:33:25.060Z,95897.75
2023-04-11T23:36:12.378Z,95903.38
2023-04-11T23:38:59.697Z,95890.03
2023-04-11T23:41:47.050Z,95880.25
2023-04-11T23:44:34.389Z,95887.69
2023-04-11T23:47:21.691Z,95890.19
2023-04-11T23:50:08.987Z,95882.00
2023-04-11T23:52:56.265Z,95873.25
2023-04-11T23:55:43.578Z,95882.53
2023-04-11T23:58:30.841Z,95885.59
